createdAt,value
2022-08-26T00:02:30.764Z,25.82
2022-08-26T00:07:37.910Z,25.82
2022-08-26T00:12:45.091Z,25.82
2022-08-26T00:17:52.368Z,25.81
2022-08-26T00:22:59.580Z,25.81
2022-08-26T00:28:06.794Z,25.82
2022-08-26T00:33:14.051Z,25.81
2022-08-26T00:38:21.291Z,25.82
2022-08-26T00:43:28.492Z,25.80
2022-08-26T00:48:35.691Z,25.81
2022-08-26T00:53:42.848Z,25.82
2022-08-26T00:58:50.004Z,25.83
2022-08-26T01:03:57.219Z,25.82
2022-08-26T01:09:04.430Z,25.82
2022-08-26T01:14:11.602Z,25.82
2022-08-26T01:19:18.765Z,25.80
2022-08-26T01:24:25.983Z,25.77
2022-08-26T01:29:33.154Z,25.79
2022-08-26T01:34:40.349Z,25.75
2022-08-26T01:39:47.590Z,25.79
2022-08-26T01:44:54.706Z,25.76
2022-08-26T01:50:02.831Z,25.74
2022-08-26T01:55:09.112Z,25.76
2022-08-26T02:00:16.316Z,25.77
2022-08-26T02:05:23.450Z,25.76
2022-08-26T02:10:30.642Z,25.75
2022-08-26T02:15:37.849Z,25.77
2022-08-26T02:20:45.105Z,25.76
2022-08-26T02:25:55.102Z,25.75
2022-08-26T02:31:02.706Z,25.74
2022-08-26T02:36:09.487Z,25.75
2022-08-26T02:41:16.739Z,25.75
2022-08-26T02:46:27.868Z,25.69
2022-08-26T02:51:31.264Z,25.72
2022-08-26T02:56:38.443Z,25.75
2022-08-26T03:01:45.680Z,25.75
2022-08-26T03:06:53.139Z,25.75
2022-08-26T03:12:00.183Z,25.77
2022-08-26T03:17:07.370Z,25.71
2022-08-26T03:22:14.705Z,25.69
2022-08-26T03:27:21.856Z,25.70
2022-08-26T03:32:29.043Z,25.71
2022-08-26T03:37:36.289Z,25.70
2022-08-26T03:42:45.420Z,25.72
2022-08-26T03:47:51.754Z,25.63
2022-08-26T03:52:58.986Z,25.63
2022-08-26T03:58:06.258Z,25.61
2022-08-26T04:03:18.632Z,25.48
2022-08-26T04:08:22.670Z,25.55
2022-08-26T04:13:29.937Z,25.57
2022-08-26T04:18:37.370Z,25.58
2022-08-26T04:23:47.511Z,25.56
2022-08-26T04:28:53.136Z,25.48
2022-08-26T04:34:00.367Z,25.44
2022-08-26T04:39:07.628Z,25.45
2022-08-26T04:44:14.921Z,25.42
2022-08-26T04:49:22.185Z,25.33
2022-08-26T04:54:29.416Z,25.35
2022-08-26T04:59:39.336Z,25.31
2022-08-26T05:04:43.817Z,25.27
2022-08-26T05:09:51.081Z,25.23
2022-08-26T05:14:58.383Z,25.20
2022-08-26T05:20:05.536Z,25.19
2022-08-26T05:25:12.739Z,25.18
2022-08-26T05:30:19.906Z,25.19
2022-08-26T05:35:27.104Z,25.10
2022-08-26T05:40:34.345Z,25.02
2022-08-26T05:45:45.820Z,24.92
2022-08-26T05:50:48.699Z,24.87
2022-08-26T05:55:55.848Z,24.83
2022-08-26T06:01:03.225Z,24.81
2022-08-26T06:06:10.594Z,24.70
2022-08-26T06:11:18.600Z,24.56
2022-08-26T06:16:24.897Z,24.36
2022-08-26T06:21:32.070Z,24.44
2022-08-26T06:26:39.247Z,24.47
2022-08-26T06:31:46.502Z,24.59
2022-08-26T06:36:53.665Z,24.68
2022-08-26T06:42:00.912Z,24.71
2022-08-26T06:47:08.166Z,24.82
2022-08-26T06:52:17.982Z,24.91
2022-08-26T06:57:22.668Z,24.96
2022-08-26T07:02:29.906Z,25.00
2022-08-26T07:07:37.107Z,25.02
2022-08-26T07:12:47.266Z,25.13
2022-08-26T07:17:51.461Z,25.21
2022-08-26T07:22:58.656Z,25.26
2022-08-26T07:28:05.861Z,25.33
2022-08-26T07:33:13.106Z,25.39
2022-08-26T07:38:20.306Z,25.41
2022-08-26T07:43:27.535Z,25.47
2022-08-26T07:48:34.788Z,25.52
2022-08-26T07:53:42.014Z,25.57
2022-08-26T07:58:51.885Z,25.63
2022-08-26T08:03:56.528Z,25.68
2022-08-26T08:09:03.717Z,25.75
2022-08-26T08:14:11.899Z,25.80
2022-08-26T08:19:18.195Z,25.87
2022-08-26T08:24:25.372Z,25.91
2022-08-26T08:29:32.598Z,25.97
2022-08-26T08:39:49.214Z,26.02
2022-08-26T08:44:56.227Z,26.05
2022-08-26T08:50:04.035Z,26.06
2022-08-26T08:55:14.826Z,26.06
2022-08-26T09:00:18.447Z,26.07
2022-08-26T09:05:25.654Z,26.15
2022-08-26T09:10:32.983Z,26.12
2022-08-26T09:15:40.146Z,26.14
2022-08-26T09:20:47.320Z,26.15
2022-08-26T09:31:01.755Z,26.17
2022-08-26T09:36:08.911Z,26.17
2022-08-26T09:41:16.125Z,26.25
2022-08-26T09:46:23.402Z,26.30
2022-08-26T09:51:30.567Z,26.35
2022-08-26T09:56:37.737Z,26.42
2022-08-26T10:01:45.354Z,26.48
2022-08-26T10:06:52.120Z,26.51
2022-08-26T10:11:59.309Z,26.57
2022-08-26T10:17:06.955Z,26.61
2022-08-26T10:22:13.676Z,26.67
2022-08-26T10:27:20.845Z,26.72
2022-08-26T10:32:28.071Z,26.77
2022-08-26T10:37:35.226Z,26.81
2022-08-26T10:42:42.408Z,26.84
2022-08-26T10:47:49.639Z,26.86
2022-08-26T10:52:56.867Z,26.90
2022-08-26T10:58:05.010Z,26.94
2022-08-26T11:03:21.644Z,26.92
2022-08-26T11:08:18.521Z,26.97
2022-08-26T11:13:25.766Z,26.99
2022-08-26T11:18:32.994Z,26.99
2022-08-26T11:23:40.363Z,26.99
2022-08-26T11:28:47.374Z,27.09
2022-08-26T11:33:54.571Z,27.13
2022-08-26T11:39:02.780Z,27.14
2022-08-26T11:44:09.041Z,27.14
2022-08-26T11:49:16.202Z,27.23
2022-08-26T11:54:32.901Z,27.29
2022-08-26T11:59:30.728Z,27.30
2022-08-26T12:04:38.019Z,27.32
2022-08-26T12:09:47.455Z,27.29
2022-08-26T12:14:54.664Z,27.26
2022-08-26T12:20:01.855Z,27.31
2022-08-26T12:25:09.012Z,27.36
2022-08-26T12:30:17.982Z,27.34
2022-08-26T12:35:23.403Z,27.35
2022-08-26T12:40:30.710Z,27.37
2022-08-26T12:45:37.789Z,27.42
2022-08-26T12:50:47.046Z,27.42
2022-08-26T12:55:54.255Z,27.41
2022-08-26T13:01:01.661Z,27.42
2022-08-26T13:06:08.717Z,27.42
2022-08-26T13:11:15.960Z,27.43
2022-08-26T13:16:23.274Z,27.47
2022-08-26T13:21:32.034Z,27.44
2022-08-26T13:26:37.582Z,27.40
2022-08-26T13:31:45.102Z,27.43
2022-08-26T13:36:52.050Z,27.44
2022-08-26T13:41:59.317Z,27.42
2022-08-26T13:47:06.512Z,27.52
2022-08-26T13:52:13.686Z,27.50
2022-08-26T13:57:21.566Z,27.48
2022-08-26T14:02:28.747Z,27.47
2022-08-26T14:07:35.944Z,27.47
2022-08-26T14:12:43.124Z,27.43
2022-08-26T14:17:50.321Z,27.54
2022-08-26T14:23:13.096Z,27.61
2022-08-26T14:28:04.722Z,27.58
2022-08-26T14:33:11.972Z,27.64
2022-08-26T14:38:19.156Z,27.71
2022-08-26T14:43:26.330Z,27.70
2022-08-26T14:48:33.519Z,27.71
2022-08-26T14:53:40.798Z,27.74
2022-08-26T14:58:48.017Z,27.75
2022-08-26T15:03:55.192Z,27.77
2022-08-26T15:09:02.519Z,27.79
2022-08-26T15:14:19.066Z,27.77
2022-08-26T15:19:16.828Z,27.79
2022-08-26T15:24:24.153Z,27.83
2022-08-26T15:29:31.405Z,27.86
2022-08-26T15:34:38.615Z,27.92
2022-08-26T15:39:45.882Z,27.90
2022-08-26T15:44:53.066Z,27.82
2022-08-26T15:50:01.376Z,27.81
2022-08-26T15:55:08.647Z,27.79
2022-08-26T16:00:15.838Z,27.75
2022-08-26T16:05:23.202Z,27.75
2022-08-26T16:10:30.418Z,27.71
2022-08-26T16:15:37.757Z,27.72
2022-08-26T16:20:44.894Z,27.69
2022-08-26T16:25:52.176Z,27.61
2022-08-26T16:30:59.491Z,27.62
2022-08-26T16:36:06.621Z,27.58
2022-08-26T16:41:13.799Z,27.56
2022-08-26T16:46:21.050Z,27.54
2022-08-26T16:51:28.279Z,27.54
2022-08-26T16:56:35.459Z,27.53
2022-08-26T17:01:42.691Z,27.54
2022-08-26T17:06:49.829Z,27.59
2022-08-26T17:11:57.021Z,27.60
2022-08-26T17:17:04.305Z,27.61
2022-08-26T17:22:11.503Z,27.60
2022-08-26T17:27:18.754Z,27.57
2022-08-26T17:32:26.553Z,27.53
2022-08-26T17:37:33.735Z,27.42
2022-08-26T17:42:41.048Z,27.38
2022-08-26T17:47:48.210Z,27.31
2022-08-26T17:52:55.410Z,27.26
2022-08-26T17:58:04.004Z,27.19
2022-08-26T18:03:10.016Z,27.18
2022-08-26T18:08:17.046Z,27.15
2022-08-26T18:13:24.229Z,27.20
2022-08-26T18:18:31.412Z,27.28
2022-08-26T18:23:41.718Z,27.34
2022-08-26T18:28:49.002Z,27.36
2022-08-26T18:33:56.181Z,27.39
2022-08-26T18:39:03.355Z,27.40
2022-08-26T18:44:13.669Z,27.42
2022-08-26T18:49:17.774Z,27.44
2022-08-26T18:54:25.075Z,27.47
2022-08-26T18:59:32.383Z,27.50
2022-08-26T19:04:39.794Z,27.50
2022-08-26T19:09:47.444Z,27.45
2022-08-26T19:14:54.825Z,27.38
2022-08-26T19:20:02.323Z,27.47
2022-08-26T19:25:09.939Z,27.44
2022-08-26T19:30:17.560Z,27.47
2022-08-26T19:35:25.088Z,27.48
2022-08-26T19:40:32.737Z,27.47
2022-08-26T19:45:40.187Z,27.43
2022-08-26T19:50:47.686Z,27.43
2022-08-26T19:55:55.198Z,27.27
2022-08-26T20:01:02.869Z,27.18
2022-08-26T20:06:10.431Z,27.21
2022-08-26T20:11:17.832Z,27.20
2022-08-26T20:16:25.336Z,27.22
2022-08-26T20:21:32.962Z,27.22
2022-08-26T20:26:40.474Z,27.18
2022-08-26T20:31:47.909Z,27.19
2022-08-26T20:36:55.730Z,27.18
2022-08-26T20:42:02.954Z,27.18
2022-08-26T20:47:10.231Z,27.18
2022-08-26T20:52:17.446Z,27.14
2022-08-26T20:57:24.706Z,27.11
2022-08-26T21:02:31.987Z,27.09
2022-08-26T21:07:39.224Z,27.12
2022-08-26T21:12:46.458Z,27.14
2022-08-26T21:17:53.649Z,27.13
2022-08-26T21:23:00.826Z,27.12
2022-08-26T21:28:08.126Z,27.09
2022-08-26T21:33:15.293Z,27.08
2022-08-26T21:38:22.476Z,27.09
2022-08-26T21:43:35.517Z,27.10
2022-08-26T21:48:36.867Z,27.04
2022-08-26T21:53:44.141Z,27.01
2022-08-26T21:58:52.469Z,27.00
2022-08-26T22:03:58.506Z,26.97
2022-08-26T22:09:05.696Z,26.99
2022-08-26T22:14:12.979Z,27.02
2022-08-26T22:19:20.273Z,27.01
2022-08-26T22:24:29.074Z,27.04
2022-08-26T22:29:36.368Z,27.04
2022-08-26T22:34:43.647Z,27.00
2022-08-26T22:39:50.941Z,27.02
2022-08-26T22:44:58.108Z,27.04
2022-08-26T22:50:05.326Z,26.99
2022-08-26T22:55:12.573Z,27.09
2022-08-26T23:00:19.768Z,27.06
2022-08-26T23:05:26.995Z,27.03
2022-08-26T23:10:34.229Z,27.09
2022-08-26T23:15:41.414Z,27.11
2022-08-26T23:20:49.307Z,27.09
2022-08-26T23:25:56.581Z,27.04
2022-08-26T23:31:03.773Z,27.06
2022-08-26T23:36:14.628Z,27.04
2022-08-26T23:41:18.141Z,27.00
2022-08-26T23:46:25.338Z,26.91
2022-08-26T23:51:32.617Z,26.93
2022-08-26T23:56:39.818Z,26.88
